Escanaba, Michigan
Current Conditions -  °F | °C
As of 7:35 AM on Monday 22 Dec 2014 (Local Time) from KESC Reporting Station
Overcast Overcast  
Wind Chill: 27°   Ceiling: 1200
Heat Index: 36°   Visibility: 3mi
Dew Point: 30°   Wind: 14mph
Humidity: 81%   Direction: 160°SSE
Pressure: 29.94"   Gusts: 18mph
Location:  45.75°N, 87.08°W
Report Text: KESC 221235Z AUTO 16012G16KT 3SM OVC012 02/M01 A2994 RMK AO1
Loading
Personal Weather Stations






























Interactive Weather Map New forecast layout! Learn more

10-Day Weather Forecast

Advertisements
Track Severe Weather on mobile